sensor_id;sensor_type;location;lat;lon;timestamp;P1;durP1;ratioP1;P2;durP2;ratioP2
68072;SDS011;54862;51.502;7.446;2023-04-25T00:01:20;17.75;;;5.20;;
68072;SDS011;54862;51.502;7.446;2023-04-25T00:03:46;13.40;;;4.88;;
68072;SDS011;54862;51.502;7.446;2023-04-25T00:06:12;14.30;;;4.65;;
68072;SDS011;54862;51.502;7.446;2023-04-25T00:08:39;15.35;;;4.53;;
68072;SDS011;54862;51.502;7.446;2023-04-25T00:11:07;17.10;;;5.78;;
68072;SDS011;54862;51.502;7.446;2023-04-25T00:13:33;13.38;;;4.60;;
68072;SDS011;54862;51.502;7.446;2023-04-25T00:15:59;13.98;;;4.90;;
68072;SDS011;54862;51.502;7.446;2023-04-25T00:18:25;17.38;;;4.65;;
68072;SDS011;54862;51.502;7.446;2023-04-25T00:20:54;16.25;;;5.10;;
68072;SDS011;54862;51.502;7.446;2023-04-25T00:23:20;15.93;;;5.00;;
68072;SDS011;54862;51.502;7.446;2023-04-25T00:25:47;14.75;;;4.50;;
68072;SDS011;54862;51.502;7.446;2023-04-25T00:28:13;12.43;;;4.82;;
68072;SDS011;54862;51.502;7.446;2023-04-25T00:30:40;14.27;;;4.68;;
68072;SDS011;54862;51.502;7.446;2023-04-25T00:33:06;12.65;;;5.38;;
68072;SDS011;54862;51.502;7.446;2023-04-25T00:35:32;13.38;;;5.20;;
68072;SDS011;54862;51.502;7.446;2023-04-25T00:37:58;13.77;;;5.50;;
68072;SDS011;54862;51.502;7.446;2023-04-25T00:40:24;12.50;;;5.13;;
68072;SDS011;54862;51.502;7.446;2023-04-25T00:42:55;14.50;;;6.18;;
68072;SDS011;54862;51.502;7.446;2023-04-25T00:45:27;14.32;;;5.35;;
68072;SDS011;54862;51.502;7.446;2023-04-25T00:47:54;20.20;;;6.68;;
68072;SDS011;54862;51.502;7.446;2023-04-25T00:50:22;13.82;;;5.82;;
68072;SDS011;54862;51.502;7.446;2023-04-25T00:52:48;15.38;;;6.15;;
68072;SDS011;54862;51.502;7.446;2023-04-25T00:55:15;12.30;;;5.05;;
68072;SDS011;54862;51.502;7.446;2023-04-25T00:57:41;13.10;;;5.95;;
68072;SDS011;54862;51.502;7.446;2023-04-25T01:00:10;13.13;;;5.93;;
68072;SDS011;54862;51.502;7.446;2023-04-25T01:02:36;11.23;;;5.20;;
68072;SDS011;54862;51.502;7.446;2023-04-25T01:05:04;14.85;;;5.50;;
68072;SDS011;54862;51.502;7.446;2023-04-25T01:07:33;12.82;;;6.13;;
68072;SDS011;54862;51.502;7.446;2023-04-25T01:09:59;13.43;;;5.55;;
68072;SDS011;54862;51.502;7.446;2023-04-25T01:12:25;16.73;;;6.20;;
68072;SDS011;54862;51.502;7.446;2023-04-25T01:14:51;14.27;;;5.68;;
68072;SDS011;54862;51.502;7.446;2023-04-25T01:17:19;14.18;;;5.50;;
68072;SDS011;54862;51.502;7.446;2023-04-25T01:19:46;15.52;;;6.00;;
68072;SDS011;54862;51.502;7.446;2023-04-25T01:22:15;12.50;;;5.60;;
68072;SDS011;54862;51.502;7.446;2023-04-25T01:24:44;13.93;;;5.25;;
68072;SDS011;54862;51.502;7.446;2023-04-25T01:27:10;13.85;;;5.53;;
68072;SDS011;54862;51.502;7.446;2023-04-25T01:29:36;13.25;;;5.43;;
68072;SDS011;54862;51.502;7.446;2023-04-25T01:32:02;15.52;;;5.38;;
68072;SDS011;54862;51.502;7.446;2023-04-25T01:34:28;16.08;;;6.35;;
68072;SDS011;54862;51.502;7.446;2023-04-25T01:36:55;12.52;;;5.15;;
68072;SDS011;54862;51.502;7.446;2023-04-25T01:39:21;12.40;;;5.50;;
68072;SDS011;54862;51.502;7.446;2023-04-25T01:41:47;13.13;;;5.68;;
68072;SDS011;54862;51.502;7.446;2023-04-25T01:44:15;15.48;;;6.25;;
68072;SDS011;54862;51.502;7.446;2023-04-25T01:46:41;13.98;;;5.70;;
68072;SDS011;54862;51.502;7.446;2023-04-25T01:49:07;16.98;;;6.43;;
68072;SDS011;54862;51.502;7.446;2023-04-25T01:51:33;14.43;;;5.80;;
68072;SDS011;54862;51.502;7.446;2023-04-25T01:54:02;16.88;;;6.75;;
68072;SDS011;54862;51.502;7.446;2023-04-25T01:56:31;19.88;;;6.22;;
68072;SDS011;54862;51.502;7.446;2023-04-25T01:58:58;12.98;;;5.88;;
68072;SDS011;54862;51.502;7.446;2023-04-25T02:01:24;14.68;;;6.65;;
68072;SDS011;54862;51.502;7.446;2023-04-25T02:03:52;15.20;;;6.43;;
68072;SDS011;54862;51.502;7.446;2023-04-25T02:06:18;16.48;;;7.05;;
68072;SDS011;54862;51.502;7.446;2023-04-25T02:08:44;16.25;;;6.50;;
68072;SDS011;54862;51.502;7.446;2023-04-25T02:11:13;15.25;;;6.82;;
68072;SDS011;54862;51.502;7.446;2023-04-25T02:13:39;16.80;;;7.30;;
68072;SDS011;54862;51.502;7.446;2023-04-25T02:16:07;16.10;;;6.72;;
68072;SDS011;54862;51.502;7.446;2023-04-25T02:18:33;14.27;;;6.00;;
68072;SDS011;54862;51.502;7.446;2023-04-25T02:20:59;16.33;;;6.35;;
68072;SDS011;54862;51.502;7.446;2023-04-25T02:23:26;16.02;;;6.97;;
68072;SDS011;54862;51.502;7.446;2023-04-25T02:25:55;16.02;;;6.70;;
68072;SDS011;54862;51.502;7.446;2023-04-25T02:28:24;18.75;;;7.60;;
68072;SDS011;54862;51.502;7.446;2023-04-25T02:30:53;20.17;;;7.68;;
68072;SDS011;54862;51.502;7.446;2023-04-25T02:33:21;15.25;;;7.55;;
68072;SDS011;54862;51.502;7.446;2023-04-25T02:35:47;15.30;;;7.00;;
68072;SDS011;54862;51.502;7.446;2023-04-25T02:38:13;17.23;;;7.07;;
68072;SDS011;54862;51.502;7.446;2023-04-25T02:40:41;18.38;;;7.95;;
68072;SDS011;54862;51.502;7.446;2023-04-25T02:43:07;20.92;;;9.48;;
68072;SDS011;54862;51.502;7.446;2023-04-25T02:45:33;17.33;;;8.25;;
68072;SDS011;54862;51.502;7.446;2023-04-25T02:48:00;16.58;;;8.73;;
68072;SDS011;54862;51.502;7.446;2023-04-25T02:50:26;18.10;;;9.27;;
68072;SDS011;54862;51.502;7.446;2023-04-25T02:52:56;21.45;;;9.63;;
68072;SDS011;54862;51.502;7.446;2023-04-25T02:55:22;18.75;;;9.02;;
68072;SDS011;54862;51.502;7.446;2023-04-25T02:57:48;20.70;;;9.13;;
68072;SDS011;54862;51.502;7.446;2023-04-25T03:00:14;21.35;;;9.30;;
68072;SDS011;54862;51.502;7.446;2023-04-25T03:02:43;21.75;;;9.20;;
68072;SDS011;54862;51.502;7.446;2023-04-25T03:05:09;20.25;;;8.65;;
68072;SDS011;54862;51.502;7.446;2023-04-25T03:07:35;17.33;;;8.00;;
68072;SDS011;54862;51.502;7.446;2023-04-25T03:10:01;15.57;;;7.78;;
68072;SDS011;54862;51.502;7.446;2023-04-25T03:12:30;21.40;;;7.90;;
68072;SDS011;54862;51.502;7.446;2023-04-25T03:14:59;19.38;;;9.23;;
68072;SDS011;54862;51.502;7.446;2023-04-25T03:17:25;19.42;;;7.65;;
68072;SDS011;54862;51.502;7.446;2023-04-25T03:19:51;19.88;;;7.78;;
68072;SDS011;54862;51.502;7.446;2023-04-25T03:22:17;19.23;;;7.18;;
68072;SDS011;54862;51.502;7.446;2023-04-25T03:24:43;14.48;;;7.75;;
68072;SDS011;54862;51.502;7.446;2023-04-25T03:27:09;16.38;;;8.00;;
68072;SDS011;54862;51.502;7.446;2023-04-25T03:29:38;15.88;;;6.90;;
68072;SDS011;54862;51.502;7.446;2023-04-25T03:32:04;21.13;;;7.00;;
68072;SDS011;54862;51.502;7.446;2023-04-25T03:34:30;16.65;;;7.25;;
68072;SDS011;54862;51.502;7.446;2023-04-25T03:36:58;16.13;;;6.40;;
68072;SDS011;54862;51.502;7.446;2023-04-25T03:39:25;14.52;;;6.47;;
68072;SDS011;54862;51.502;7.446;2023-04-25T03:41:51;19.13;;;6.80;;
68072;SDS011;54862;51.502;7.446;2023-04-25T03:44:17;17.30;;;6.15;;
68072;SDS011;54862;51.502;7.446;2023-04-25T03:46:43;15.32;;;6.60;;
68072;SDS011;54862;51.502;7.446;2023-04-25T03:49:09;17.23;;;6.70;;
68072;SDS011;54862;51.502;7.446;2023-04-25T03:51:35;15.75;;;6.60;;
68072;SDS011;54862;51.502;7.446;2023-04-25T03:54:01;16.50;;;6.10;;
68072;SDS011;54862;51.502;7.446;2023-04-25T03:56:27;17.92;;;6.32;;
68072;SDS011;54862;51.502;7.446;2023-04-25T03:58:53;20.08;;;6.85;;
68072;SDS011;54862;51.502;7.446;2023-04-25T04:01:22;14.43;;;6.88;;
68072;SDS011;54862;51.502;7.446;2023-04-25T04:03:48;17.98;;;7.13;;
68072;SDS011;54862;51.502;7.446;2023-04-25T04:06:16;14.77;;;6.60;;
68072;SDS011;54862;51.502;7.446;2023-04-25T04:08:42;22.17;;;6.57;;
68072;SDS011;54862;51.502;7.446;2023-04-25T04:11:11;14.35;;;6.45;;
68072;SDS011;54862;51.502;7.446;2023-04-25T04:13:39;16.75;;;6.90;;
68072;SDS011;54862;51.502;7.446;2023-04-25T04:16:05;13.45;;;4.95;;
68072;SDS011;54862;51.502;7.446;2023-04-25T04:18:33;15.57;;;5.07;;
68072;SDS011;54862;51.502;7.446;2023-04-25T04:20:59;7.70;;;2.92;;
68072;SDS011;54862;51.502;7.446;2023-04-25T04:23:25;8.93;;;3.17;;
68072;SDS011;54862;51.502;7.446;2023-04-25T04:25:52;9.35;;;3.10;;
68072;SDS011;54862;51.502;7.446;2023-04-25T04:28:21;7.10;;;2.80;;
68072;SDS011;54862;51.502;7.446;2023-04-25T04:30:47;7.88;;;2.90;;
68072;SDS011;54862;51.502;7.446;2023-04-25T04:33:16;12.30;;;3.80;;
68072;SDS011;54862;51.502;7.446;2023-04-25T04:35:46;9.60;;;3.65;;
68072;SDS011;54862;51.502;7.446;2023-04-25T04:38:17;10.73;;;3.38;;
68072;SDS011;54862;51.502;7.446;2023-04-25T04:40:43;9.55;;;3.53;;
68072;SDS011;54862;51.502;7.446;2023-04-25T04:43:09;10.02;;;3.13;;
68072;SDS011;54862;51.502;7.446;2023-04-25T04:45:35;11.18;;;3.45;;
68072;SDS011;54862;51.502;7.446;2023-04-25T04:48:04;8.25;;;3.15;;
68072;SDS011;54862;51.502;7.446;2023-04-25T04:50:30;11.60;;;3.55;;
68072;SDS011;54862;51.502;7.446;2023-04-25T04:52:59;9.55;;;3.20;;
68072;SDS011;54862;51.502;7.446;2023-04-25T04:55:27;10.45;;;3.42;;
68072;SDS011;54862;51.502;7.446;2023-04-25T04:57:53;8.85;;;3.50;;
68072;SDS011;54862;51.502;7.446;2023-04-25T05:00:22;9.18;;;3.20;;
68072;SDS011;54862;51.502;7.446;2023-04-25T05:02:48;7.70;;;3.40;;
68072;SDS011;54862;51.502;7.446;2023-04-25T05:05:14;9.25;;;3.00;;
68072;SDS011;54862;51.502;7.446;2023-04-25T05:07:40;8.05;;;3.85;;
68072;SDS011;54862;51.502;7.446;2023-04-25T05:10:06;9.52;;;4.00;;
68072;SDS011;54862;51.502;7.446;2023-04-25T05:12:35;11.77;;;3.60;;
68072;SDS011;54862;51.502;7.446;2023-04-25T05:15:01;10.45;;;4.05;;
68072;SDS011;54862;51.502;7.446;2023-04-25T05:17:30;13.02;;;3.97;;
68072;SDS011;54862;51.502;7.446;2023-04-25T05:19:56;11.15;;;4.32;;
68072;SDS011;54862;51.502;7.446;2023-04-25T05:22:24;11.45;;;4.50;;
68072;SDS011;54862;51.502;7.446;2023-04-25T05:24:51;14.70;;;4.10;;
68072;SDS011;54862;51.502;7.446;2023-04-25T05:27:20;13.90;;;3.60;;
68072;SDS011;54862;51.502;7.446;2023-04-25T05:29:46;17.05;;;4.43;;
68072;SDS011;54862;51.502;7.446;2023-04-25T05:32:12;11.95;;;3.80;;
68072;SDS011;54862;51.502;7.446;2023-04-25T05:34:38;12.98;;;3.85;;
68072;SDS011;54862;51.502;7.446;2023-04-25T05:37:04;12.55;;;4.45;;
68072;SDS011;54862;51.502;7.446;2023-04-25T05:39:30;19.45;;;4.80;;
68072;SDS011;54862;51.502;7.446;2023-04-25T05:41:56;19.20;;;4.72;;
68072;SDS011;54862;51.502;7.446;2023-04-25T05:44:22;16.85;;;4.80;;
68072;SDS011;54862;51.502;7.446;2023-04-25T05:46:50;10.70;;;4.18;;
68072;SDS011;54862;51.502;7.446;2023-04-25T05:49:19;19.75;;;4.53;;
68072;SDS011;54862;51.502;7.446;2023-04-25T05:51:45;16.42;;;4.88;;
68072;SDS011;54862;51.502;7.446;2023-04-25T05:54:13;25.58;;;5.32;;
68072;SDS011;54862;51.502;7.446;2023-04-25T05:56:39;17.33;;;4.97;;
68072;SDS011;54862;51.502;7.446;2023-04-25T05:59:07;17.48;;;4.78;;
68072;SDS011;54862;51.502;7.446;2023-04-25T06:01:33;15.15;;;4.47;;
68072;SDS011;54862;51.502;7.446;2023-04-25T06:03:59;13.10;;;4.50;;
68072;SDS011;54862;51.502;7.446;2023-04-25T06:06:26;17.85;;;4.68;;
68072;SDS011;54862;51.502;7.446;2023-04-25T06:08:52;15.90;;;4.10;;
68072;SDS011;54862;51.502;7.446;2023-04-25T06:11:19;15.00;;;4.75;;
68072;SDS011;54862;51.502;7.446;2023-04-25T06:13:45;14.98;;;4.80;;
68072;SDS011;54862;51.502;7.446;2023-04-25T06:16:13;12.63;;;4.60;;
68072;SDS011;54862;51.502;7.446;2023-04-25T06:18:42;15.13;;;5.22;;
68072;SDS011;54862;51.502;7.446;2023-04-25T06:21:08;19.77;;;4.80;;
68072;SDS011;54862;51.502;7.446;2023-04-25T06:23:36;14.77;;;4.85;;
68072;SDS011;54862;51.502;7.446;2023-04-25T06:26:02;19.63;;;5.53;;
68072;SDS011;54862;51.502;7.446;2023-04-25T06:28:28;19.40;;;5.28;;
68072;SDS011;54862;51.502;7.446;2023-04-25T06:30:54;16.52;;;5.70;;
68072;SDS011;54862;51.502;7.446;2023-04-25T06:33:22;16.95;;;5.78;;
68072;SDS011;54862;51.502;7.446;2023-04-25T06:35:49;12.43;;;5.15;;
68072;SDS011;54862;51.502;7.446;2023-04-25T06:38:15;17.50;;;4.72;;
68072;SDS011;54862;51.502;7.446;2023-04-25T06:40:41;20.52;;;5.75;;
68072;SDS011;54862;51.502;7.446;2023-04-25T06:43:07;18.55;;;5.85;;
68072;SDS011;54862;51.502;7.446;2023-04-25T06:45:35;15.88;;;5.80;;
68072;SDS011;54862;51.502;7.446;2023-04-25T06:48:01;17.15;;;5.72;;
68072;SDS011;54862;51.502;7.446;2023-04-25T06:50:30;16.85;;;5.82;;
68072;SDS011;54862;51.502;7.446;2023-04-25T06:52:56;15.10;;;5.40;;
68072;SDS011;54862;51.502;7.446;2023-04-25T06:55:21;19.27;;;5.22;;
68072;SDS011;54862;51.502;7.446;2023-04-25T06:57:50;17.60;;;5.13;;
68072;SDS011;54862;51.502;7.446;2023-04-25T07:00:16;16.67;;;4.75;;
68072;SDS011;54862;51.502;7.446;2023-04-25T07:02:44;21.25;;;5.15;;
68072;SDS011;54862;51.502;7.446;2023-04-25T07:05:11;20.48;;;5.18;;
68072;SDS011;54862;51.502;7.446;2023-04-25T07:07:37;18.95;;;4.93;;
68072;SDS011;54862;51.502;7.446;2023-04-25T07:10:05;18.67;;;5.85;;
68072;SDS011;54862;51.502;7.446;2023-04-25T07:12:31;24.92;;;5.75;;
68072;SDS011;54862;51.502;7.446;2023-04-25T07:14:57;27.58;;;6.13;;
68072;SDS011;54862;51.502;7.446;2023-04-25T07:17:30;22.30;;;5.25;;
68072;SDS011;54862;51.502;7.446;2023-04-25T07:19:59;11.98;;;4.95;;
68072;SDS011;54862;51.502;7.446;2023-04-25T07:22:25;38.50;;;6.22;;
68072;SDS011;54862;51.502;7.446;2023-04-25T07:24:51;14.40;;;4.95;;
68072;SDS011;54862;51.502;7.446;2023-04-25T07:27:18;15.75;;;4.13;;
68072;SDS011;54862;51.502;7.446;2023-04-25T07:29:44;17.75;;;5.05;;
68072;SDS011;54862;51.502;7.446;2023-04-25T07:32:10;23.00;;;5.97;;
68072;SDS011;54862;51.502;7.446;2023-04-25T07:34:38;29.83;;;6.38;;
68072;SDS011;54862;51.502;7.446;2023-04-25T07:37:04;18.95;;;5.63;;
68072;SDS011;54862;51.502;7.446;2023-04-25T07:39:33;14.77;;;5.60;;
68072;SDS011;54862;51.502;7.446;2023-04-25T07:42:00;24.08;;;5.78;;
68072;SDS011;54862;51.502;7.446;2023-04-25T07:44:27;20.00;;;6.10;;
68072;SDS011;54862;51.502;7.446;2023-04-25T07:46:53;17.35;;;5.32;;
68072;SDS011;54862;51.502;7.446;2023-04-25T07:49:19;15.88;;;4.97;;
68072;SDS011;54862;51.502;7.446;2023-04-25T07:51:45;11.65;;;4.63;;
68072;SDS011;54862;51.502;7.446;2023-04-25T07:54:13;19.20;;;4.90;;
68072;SDS011;54862;51.502;7.446;2023-04-25T07:56:42;10.70;;;4.18;;
68072;SDS011;54862;51.502;7.446;2023-04-25T07:59:10;15.38;;;4.55;;
68072;SDS011;54862;51.502;7.446;2023-04-25T08:01:36;27.30;;;6.43;;
68072;SDS011;54862;51.502;7.446;2023-04-25T08:04:07;17.02;;;4.32;;
68072;SDS011;54862;51.502;7.446;2023-04-25T08:06:35;8.60;;;3.83;;
68072;SDS011;54862;51.502;7.446;2023-04-25T08:09:04;13.98;;;4.43;;
68072;SDS011;54862;51.502;7.446;2023-04-25T08:11:30;17.23;;;5.20;;
68072;SDS011;54862;51.502;7.446;2023-04-25T08:13:56;12.35;;;4.43;;
68072;SDS011;54862;51.502;7.446;2023-04-25T08:16:22;15.30;;;4.07;;
68072;SDS011;54862;51.502;7.446;2023-04-25T08:18:50;13.52;;;3.97;;
68072;SDS011;54862;51.502;7.446;2023-04-25T08:21:16;13.55;;;3.35;;
68072;SDS011;54862;51.502;7.446;2023-04-25T08:23:42;11.05;;;3.45;;
68072;SDS011;54862;51.502;7.446;2023-04-25T08:26:08;16.30;;;4.03;;
68072;SDS011;54862;51.502;7.446;2023-04-25T08:28:34;15.18;;;3.10;;
68072;SDS011;54862;51.502;7.446;2023-04-25T08:31:00;11.25;;;3.40;;
68072;SDS011;54862;51.502;7.446;2023-04-25T08:33:26;10.82;;;3.83;;
68072;SDS011;54862;51.502;7.446;2023-04-25T08:35:52;21.30;;;4.18;;
68072;SDS011;54862;51.502;7.446;2023-04-25T08:38:19;10.65;;;3.47;;
68072;SDS011;54862;51.502;7.446;2023-04-25T08:40:49;14.45;;;3.22;;
68072;SDS011;54862;51.502;7.446;2023-04-25T08:43:16;12.85;;;3.38;;
68072;SDS011;54862;51.502;7.446;2023-04-25T08:45:43;9.40;;;2.80;;
68072;SDS011;54862;51.502;7.446;2023-04-25T08:48:11;14.95;;;3.65;;
68072;SDS011;54862;51.502;7.446;2023-04-25T08:50:44;11.13;;;2.85;;
68072;SDS011;54862;51.502;7.446;2023-04-25T08:55:40;8.65;;;2.83;;
68072;SDS011;54862;51.502;7.446;2023-04-25T08:58:07;10.60;;;2.90;;
68072;SDS011;54862;51.502;7.446;2023-04-25T09:00:35;12.13;;;3.40;;
68072;SDS011;54862;51.502;7.446;2023-04-25T09:03:01;15.50;;;3.45;;
68072;SDS011;54862;51.502;7.446;2023-04-25T09:05:28;31.50;;;4.65;;
68072;SDS011;54862;51.502;7.446;2023-04-25T09:07:56;18.15;;;3.08;;
68072;SDS011;54862;51.502;7.446;2023-04-25T09:10:23;21.20;;;4.25;;
68072;SDS011;54862;51.502;7.446;2023-04-25T09:15:40;10.07;;;3.17;;
68072;SDS011;54862;51.502;7.446;2023-04-25T09:18:12;11.90;;;3.53;;
68072;SDS011;54862;51.502;7.446;2023-04-25T09:20:41;9.73;;;3.03;;
68072;SDS011;54862;51.502;7.446;2023-04-25T09:23:10;8.00;;;2.78;;
68072;SDS011;54862;51.502;7.446;2023-04-25T09:25:36;10.93;;;2.95;;
68072;SDS011;54862;51.502;7.446;2023-04-25T09:28:05;7.35;;;2.83;;
68072;SDS011;54862;51.502;7.446;2023-04-25T09:30:32;8.25;;;2.95;;
68072;SDS011;54862;51.502;7.446;2023-04-25T09:33:08;7.40;;;3.20;;
68072;SDS011;54862;51.502;7.446;2023-04-25T09:35:35;12.32;;;2.85;;
68072;SDS011;54862;51.502;7.446;2023-04-25T09:38:06;10.23;;;2.58;;
68072;SDS011;54862;51.502;7.446;2023-04-25T09:40:32;7.70;;;2.70;;
68072;SDS011;54862;51.502;7.446;2023-04-25T09:42:58;16.00;;;3.17;;
68072;SDS011;54862;51.502;7.446;2023-04-25T09:45:25;6.50;;;2.30;;
68072;SDS011;54862;51.502;7.446;2023-04-25T09:47:55;7.68;;;2.50;;
68072;SDS011;54862;51.502;7.446;2023-04-25T09:50:22;13.50;;;2.80;;
68072;SDS011;54862;51.502;7.446;2023-04-25T09:53:02;10.73;;;2.80;;
68072;SDS011;54862;51.502;7.446;2023-04-25T09:55:32;13.88;;;2.78;;
68072;SDS011;54862;51.502;7.446;2023-04-25T09:57:59;12.32;;;3.17;;
68072;SDS011;54862;51.502;7.446;2023-04-25T10:00:27;9.63;;;2.72;;
68072;SDS011;54862;51.502;7.446;2023-04-25T10:02:54;9.80;;;2.80;;
68072;SDS011;54862;51.502;7.446;2023-04-25T10:05:22;8.90;;;2.83;;
68072;SDS011;54862;51.502;7.446;2023-04-25T10:07:49;9.38;;;2.92;;
68072;SDS011;54862;51.502;7.446;2023-04-25T10:10:16;8.32;;;2.72;;
68072;SDS011;54862;51.502;7.446;2023-04-25T10:12:50;7.63;;;2.92;;
68072;SDS011;54862;51.502;7.446;2023-04-25T10:15:16;7.85;;;2.15;;
68072;SDS011;54862;51.502;7.446;2023-04-25T10:17:43;8.13;;;2.08;;
68072;SDS011;54862;51.502;7.446;2023-04-25T10:20:12;8.32;;;2.45;;
68072;SDS011;54862;51.502;7.446;2023-04-25T10:22:41;7.78;;;2.80;;
68072;SDS011;54862;51.502;7.446;2023-04-25T10:25:08;5.30;;;1.98;;
68072;SDS011;54862;51.502;7.446;2023-04-25T10:27:34;6.80;;;2.30;;
68072;SDS011;54862;51.502;7.446;2023-04-25T10:30:06;6.68;;;2.33;;
68072;SDS011;54862;51.502;7.446;2023-04-25T10:32:35;4.40;;;2.05;;
68072;SDS011;54862;51.502;7.446;2023-04-25T10:35:15;8.02;;;2.28;;
68072;SDS011;54862;51.502;7.446;2023-04-25T10:40:26;4.88;;;1.90;;
68072;SDS011;54862;51.502;7.446;2023-04-25T10:42:52;6.97;;;2.20;;
68072;SDS011;54862;51.502;7.446;2023-04-25T10:45:21;5.07;;;1.90;;
68072;SDS011;54862;51.502;7.446;2023-04-25T10:47:47;8.55;;;2.42;;
68072;SDS011;54862;51.502;7.446;2023-04-25T10:50:14;8.98;;;2.00;;
68072;SDS011;54862;51.502;7.446;2023-04-25T10:52:45;8.63;;;2.22;;
68072;SDS011;54862;51.502;7.446;2023-04-25T10:55:11;4.95;;;1.65;;
68072;SDS011;54862;51.502;7.446;2023-04-25T10:57:39;7.10;;;2.10;;
68072;SDS011;54862;51.502;7.446;2023-04-25T11:00:09;3.95;;;1.80;;
68072;SDS011;54862;51.502;7.446;2023-04-25T11:02:38;7.20;;;2.55;;
68072;SDS011;54862;51.502;7.446;2023-04-25T11:05:06;7.97;;;2.33;;
68072;SDS011;54862;51.502;7.446;2023-04-25T11:07:43;10.38;;;2.38;;
68072;SDS011;54862;51.502;7.446;2023-04-25T11:10:12;5.95;;;1.90;;
68072;SDS011;54862;51.502;7.446;2023-04-25T11:12:39;8.75;;;2.17;;
68072;SDS011;54862;51.502;7.446;2023-04-25T11:15:06;5.72;;;2.50;;
68072;SDS011;54862;51.502;7.446;2023-04-25T11:17:32;4.05;;;1.83;;
68072;SDS011;54862;51.502;7.446;2023-04-25T11:19:58;7.10;;;2.00;;
68072;SDS011;54862;51.502;7.446;2023-04-25T11:22:27;5.88;;;2.03;;
68072;SDS011;54862;51.502;7.446;2023-04-25T11:24:56;7.50;;;2.08;;
68072;SDS011;54862;51.502;7.446;2023-04-25T11:27:24;7.75;;;2.00;;
68072;SDS011;54862;51.502;7.446;2023-04-25T11:29:50;3.67;;;1.77;;
68072;SDS011;54862;51.502;7.446;2023-04-25T11:32:17;4.88;;;2.00;;
68072;SDS011;54862;51.502;7.446;2023-04-25T11:34:43;6.28;;;1.80;;
68072;SDS011;54862;51.502;7.446;2023-04-25T11:37:12;5.85;;;1.63;;
68072;SDS011;54862;51.502;7.446;2023-04-25T11:39:42;5.53;;;1.70;;
68072;SDS011;54862;51.502;7.446;2023-04-25T11:42:09;7.70;;;2.00;;
68072;SDS011;54862;51.502;7.446;2023-04-25T11:44:37;8.25;;;2.25;;
68072;SDS011;54862;51.502;7.446;2023-04-25T11:47:06;7.25;;;2.10;;
68072;SDS011;54862;51.502;7.446;2023-04-25T11:49:32;4.07;;;1.80;;
68072;SDS011;54862;51.502;7.446;2023-04-25T11:52:00;6.18;;;1.92;;
68072;SDS011;54862;51.502;7.446;2023-04-25T11:54:29;7.90;;;2.00;;
68072;SDS011;54862;51.502;7.446;2023-04-25T11:56:55;5.38;;;1.73;;
68072;SDS011;54862;51.502;7.446;2023-04-25T11:59:24;6.32;;;1.77;;
68072;SDS011;54862;51.502;7.446;2023-04-25T12:01:51;6.97;;;1.83;;
68072;SDS011;54862;51.502;7.446;2023-04-25T12:04:21;4.85;;;1.80;;
68072;SDS011;54862;51.502;7.446;2023-04-25T12:06:48;2.30;;;1.50;;
68072;SDS011;54862;51.502;7.446;2023-04-25T12:09:15;10.35;;;2.00;;
68072;SDS011;54862;51.502;7.446;2023-04-25T12:11:45;5.32;;;1.85;;
68072;SDS011;54862;51.502;7.446;2023-04-25T12:14:11;6.18;;;1.70;;
68072;SDS011;54862;51.502;7.446;2023-04-25T12:16:41;5.45;;;1.75;;
68072;SDS011;54862;51.502;7.446;2023-04-25T12:19:07;5.10;;;1.70;;
68072;SDS011;54862;51.502;7.446;2023-04-25T12:21:33;2.95;;;1.40;;
68072;SDS011;54862;51.502;7.446;2023-04-25T12:29:17;6.47;;;1.60;;
68072;SDS011;54862;51.502;7.446;2023-04-25T12:31:43;3.97;;;1.70;;
68072;SDS011;54862;51.502;7.446;2023-04-25T12:34:09;4.43;;;1.60;;
68072;SDS011;54862;51.502;7.446;2023-04-25T12:36:36;4.70;;;1.70;;
68072;SDS011;54862;51.502;7.446;2023-04-25T12:39:02;4.10;;;1.60;;
68072;SDS011;54862;51.502;7.446;2023-04-25T12:41:30;2.15;;;1.52;;
68072;SDS011;54862;51.502;7.446;2023-04-25T12:43:56;3.50;;;1.50;;
68072;SDS011;54862;51.502;7.446;2023-04-25T12:46:22;4.32;;;1.45;;
68072;SDS011;54862;51.502;7.446;2023-04-25T12:48:48;3.63;;;1.63;;
68072;SDS011;54862;51.502;7.446;2023-04-25T12:51:14;3.63;;;1.60;;
68072;SDS011;54862;51.502;7.446;2023-04-25T12:53:40;5.72;;;1.60;;
68072;SDS011;54862;51.502;7.446;2023-04-25T12:56:09;6.88;;;1.80;;
68072;SDS011;54862;51.502;7.446;2023-04-25T12:58:35;2.97;;;1.55;;
68072;SDS011;54862;51.502;7.446;2023-04-25T13:01:04;3.47;;;1.55;;
68072;SDS011;54862;51.502;7.446;2023-04-25T13:03:30;5.03;;;1.95;;
68072;SDS011;54862;51.502;7.446;2023-04-25T13:05:56;5.90;;;1.83;;
68072;SDS011;54862;51.502;7.446;2023-04-25T13:08:22;3.83;;;1.88;;
68072;SDS011;54862;51.502;7.446;2023-04-25T13:10:48;5.93;;;1.50;;
68072;SDS011;54862;51.502;7.446;2023-04-25T13:13:14;7.97;;;1.90;;
68072;SDS011;54862;51.502;7.446;2023-04-25T13:15:41;3.75;;;1.50;;
68072;SDS011;54862;51.502;7.446;2023-04-25T13:18:07;5.32;;;1.70;;
68072;SDS011;54862;51.502;7.446;2023-04-25T13:20:33;5.68;;;1.55;;
68072;SDS011;54862;51.502;7.446;2023-04-25T13:23:02;7.80;;;1.77;;
68072;SDS011;54862;51.502;7.446;2023-04-25T13:25:28;4.72;;;1.70;;
68072;SDS011;54862;51.502;7.446;2023-04-25T13:27:54;3.83;;;1.60;;
68072;SDS011;54862;51.502;7.446;2023-04-25T13:30:22;1.60;;;1.50;;
68072;SDS011;54862;51.502;7.446;2023-04-25T13:32:48;3.15;;;1.48;;
68072;SDS011;54862;51.502;7.446;2023-04-25T13:35:14;4.07;;;1.60;;
68072;SDS011;54862;51.502;7.446;2023-04-25T13:37:40;4.95;;;1.40;;
68072;SDS011;54862;51.502;7.446;2023-04-25T13:40:10;4.35;;;1.63;;
68072;SDS011;54862;51.502;7.446;2023-04-25T13:42:39;4.95;;;2.15;;
68072;SDS011;54862;51.502;7.446;2023-04-25T13:45:06;4.65;;;1.55;;
68072;SDS011;54862;51.502;7.446;2023-04-25T13:47:32;7.22;;;1.70;;
68072;SDS011;54862;51.502;7.446;2023-04-25T13:49:58;5.05;;;1.50;;
68072;SDS011;54862;51.502;7.446;2023-04-25T13:52:27;3.72;;;1.60;;
68072;SDS011;54862;51.502;7.446;2023-04-25T13:54:53;6.40;;;2.20;;
68072;SDS011;54862;51.502;7.446;2023-04-25T13:57:19;3.83;;;1.75;;
68072;SDS011;54862;51.502;7.446;2023-04-25T13:59:47;4.72;;;1.90;;
68072;SDS011;54862;51.502;7.446;2023-04-25T14:02:13;5.68;;;2.20;;
68072;SDS011;54862;51.502;7.446;2023-04-25T14:04:40;3.58;;;1.60;;
68072;SDS011;54862;51.502;7.446;2023-04-25T14:07:06;4.63;;;1.70;;
68072;SDS011;54862;51.502;7.446;2023-04-25T14:09:35;5.20;;;1.70;;
68072;SDS011;54862;51.502;7.446;2023-04-25T14:12:02;4.15;;;1.80;;
68072;SDS011;54862;51.502;7.446;2023-04-25T14:14:28;4.38;;;1.60;;
68072;SDS011;54862;51.502;7.446;2023-04-25T14:16:54;7.43;;;1.80;;
68072;SDS011;54862;51.502;7.446;2023-04-25T14:19:20;7.05;;;1.95;;
68072;SDS011;54862;51.502;7.446;2023-04-25T14:21:49;6.85;;;2.08;;
68072;SDS011;54862;51.502;7.446;2023-04-25T14:24:15;5.53;;;2.30;;
68072;SDS011;54862;51.502;7.446;2023-04-25T14:26:41;7.45;;;2.08;;
68072;SDS011;54862;51.502;7.446;2023-04-25T14:29:10;7.45;;;1.73;;
68072;SDS011;54862;51.502;7.446;2023-04-25T14:31:36;6.47;;;1.90;;
68072;SDS011;54862;51.502;7.446;2023-04-25T14:34:05;4.65;;;1.80;;
68072;SDS011;54862;51.502;7.446;2023-04-25T14:36:32;5.32;;;2.00;;
68072;SDS011;54862;51.502;7.446;2023-04-25T14:38:58;7.97;;;2.75;;
68072;SDS011;54862;51.502;7.446;2023-04-25T14:41:25;4.20;;;1.67;;
68072;SDS011;54862;51.502;7.446;2023-04-25T14:43:51;5.63;;;2.00;;
68072;SDS011;54862;51.502;7.446;2023-04-25T14:46:18;5.45;;;2.03;;
68072;SDS011;54862;51.502;7.446;2023-04-25T14:48:47;4.65;;;1.70;;
68072;SDS011;54862;51.502;7.446;2023-04-25T14:51:13;5.55;;;2.22;;
68072;SDS011;54862;51.502;7.446;2023-04-25T14:53:40;7.10;;;2.15;;